Time;durP1;ratioP1;P1;durP2;ratioP2;P2;SDS_P1;SDS_P2;PMS_P1;PMS_P2;Temp;Humidity;BMP_temperature;BMP_pressure;BME280_temperature;BME280_humidity;BME280_pressure;Samples;Min_cycle;Max_cycle;Signal;HPM_P1;HPM_P2
2022/04/16 00:00:17;;;;;;;13.38;10.03;;;;;;;5.82;93.58;99799.14;1739721;82;21047;-36
2022/04/16 00:02:47;;;;;;;13.65;10.10;;;;;;;5.87;93.37;99799.00;1739592;82;21058;-36
2022/04/16 00:05:13;;;;;;;13.98;11.22;;;;;;;5.80;93.55;99806.59;1739599;82;21006;-36
2022/04/16 00:07:40;;;;;;;13.83;10.50;;;;;;;5.79;94.15;99800.98;1739780;82;20999;-37
2022/04/16 00:10:08;;;;;;;17.23;11.43;;;;;;;5.74;94.39;99800.63;1739758;82;21707;-38
2022/04/16 00:12:34;;;;;;;13.60;9.73;;;;;;;5.74;94.62;99801.94;1739684;82;21007;-37
2022/04/16 00:15:00;;;;;;;14.33;11.00;;;;;;;5.80;93.82;99809.20;1739611;81;20991;-36
2022/04/16 00:17:26;;;;;;;16.93;11.77;;;;;;;5.59;94.15;99808.89;1739846;81;20992;-37
2022/04/16 00:19:52;;;;;;;13.25;10.38;;;;;;;5.67;94.25;99806.91;1739588;81;21030;-35
2022/04/16 00:22:18;;;;;;;16.37;11.45;;;;;;;5.66;93.80;99814.81;1739655;82;21485;-37
2022/04/16 00:24:50;;;;;;;14.80;10.50;;;;;;;5.60;93.55;99820.17;1739897;82;21035;-37
2022/04/16 00:27:13;;;;;;;11.43;9.30;;;;;;;5.53;94.38;99820.77;1739038;82;21481;-35
2022/04/16 00:29:39;;;;;;;10.05;8.18;;;;;;;5.49;94.71;99828.28;1739700;81;20987;-35
2022/04/16 00:32:06;;;;;;;12.63;9.75;;;;;;;5.54;93.67;99825.11;1741018;81;21054;-36
2022/04/16 00:34:33;;;;;;;11.12;9.58;;;;;;;5.54;93.48;99819.89;1747863;81;20992;-36
2022/04/16 00:36:59;;;;;;;13.53;9.75;;;;;;;5.55;93.23;99826.84;1747888;82;21488;-36
2022/04/16 00:39:26;;;;;;;15.43;10.60;;;;;;;5.51;92.25;99824.75;1747792;81;21512;-37
2022/04/16 00:41:52;;;;;;;12.83;10.23;;;;;;;5.48;92.64;99831.80;1748003;81;20991;-37
2022/04/16 00:44:20;;;;;;;15.63;11.43;;;;;;;5.42;92.95;99826.72;1747776;81;20984;-38
2022/04/16 00:46:49;;;;;;;13.55;10.18;;;;;;;5.42;92.58;99828.91;1747723;82;21030;-37
2022/04/16 00:49:15;;;;;;;14.00;10.30;;;;;;;5.46;92.87;99827.92;1747690;81;21038;-36
2022/04/16 00:51:46;;;;;;;12.05;9.38;;;;;;;5.48;91.80;99826.59;1747707;81;20991;-38
2022/04/16 00:54:12;;;;;;;10.48;8.70;;;;;;;5.49;91.48;99828.28;1747720;81;20972;-36
2022/04/16 00:56:39;;;;;;;10.00;8.58;;;;;;;5.47;91.89;99826.16;1747767;82;20991;-36
2022/04/16 00:59:05;;;;;;;10.20;8.83;;;;;;;5.48;91.65;99833.95;1748124;82;21567;-37
2022/04/16 01:01:32;;;;;;;11.80;9.30;;;;;;;5.35;91.81;99837.32;1747725;82;20968;-36
2022/04/16 01:03:59;;;;;;;13.30;9.13;;;;;;;5.42;91.77;99830.21;1747935;81;21025;-37
2022/04/16 01:06:37;;;;;;;12.47;8.90;;;;;;;5.48;92.18;99833.95;1747983;82;20964;-36
2022/04/16 01:09:04;;;;;;;11.08;8.03;;;;;;;5.49;91.50;99840.02;1747065;82;21023;-36
2022/04/16 01:11:32;;;;;;;12.07;8.67;;;;;;;5.43;90.64;99837.12;1747998;81;21452;-38
2022/04/16 01:14:00;;;;;;;;;;;;;;;5.43;90.64;99837.12;1750361;82;21020;-36
2022/04/16 01:16:34;;;;;;;11.28;7.50;;;;;;;5.52;90.33;99848.63;1747712;81;20099;-37
2022/04/16 01:19:01;;;;;;;8.45;7.50;;;;;;;5.44;89.69;99845.80;1747748;82;21019;-36
2022/04/16 01:21:28;;;;;;;12.37;7.90;;;;;;;5.43;89.78;99851.92;1747880;82;20987;-36
2022/04/16 01:23:54;;;;;;;9.38;6.30;;;;;;;5.47;90.17;99849.19;1747881;82;21503;-36
2022/04/16 01:26:22;;;;;;;8.68;6.30;;;;;;;5.44;89.95;99852.31;1747721;81;21450;-36
2022/04/16 01:28:47;;;;;;;11.80;6.05;;;;;;;5.51;89.66;99850.84;1747560;81;21411;-35
2022/04/16 01:31:13;;;;;;;8.65;5.62;;;;;;;5.53;89.06;99862.52;1747845;82;21568;-40
2022/04/16 01:33:39;;;;;;;9.13;5.65;;;;;;;5.50;88.92;99869.14;1741705;81;21504;-37
2022/04/16 01:36:05;;;;;;;14.85;6.15;;;;;;;5.43;88.97;99869.73;1739543;82;20968;-37
2022/04/16 01:38:31;;;;;;;6.97;5.37;;;;;;;5.47;88.91;99864.83;1739551;82;20980;-38
2022/04/16 01:40:58;;;;;;;7.28;5.05;;;;;;;5.48;88.77;99870.93;1739533;81;21031;-38
2022/04/16 01:43:25;;;;;;;9.05;4.67;;;;;;;5.46;88.03;99873.58;1739628;82;20972;-36
2022/04/16 01:45:51;;;;;;;6.92;4.85;;;;;;;5.49;87.92;99877.84;1739725;82;21446;-35
2022/04/16 01:48:18;;;;;;;6.00;4.42;;;;;;;5.48;87.75;99874.84;1739620;82;21478;-37
2022/04/16 01:50:44;;;;;;;5.03;4.30;;;;;;;5.41;87.46;99881.11;1739713;81;21059;-37
2022/04/16 01:53:09;;;;;;;8.88;4.70;;;;;;;5.34;87.20;99892.13;1739625;82;20987;-36
2022/04/16 01:55:35;;;;;;;7.67;4.65;;;;;;;5.32;86.79;99895.22;1739720;82;20964;-37
2022/04/16 01:58:03;;;;;;;5.67;3.80;;;;;;;5.21;87.27;99888.95;1739669;81;21035;-37
2022/04/16 02:00:29;;;;;;;5.72;4.25;;;;;;;5.23;87.48;99892.84;1739655;81;21027;-37
2022/04/16 02:02:56;;;;;;;5.87;4.15;;;;;;;5.17;87.22;99900.36;1739706;82;20988;-36
2022/04/16 02:05:22;;;;;;;5.80;3.85;;;;;;;5.11;87.28;99891.36;1739906;82;21000;-37
2022/04/16 02:07:50;;;;;;;6.28;4.20;;;;;;;5.17;87.01;99898.60;1739694;81;21836;-37
2022/04/16 02:10:16;;;;;;;;;;;;;;;5.10;87.23;99901.39;1742368;82;21073;-38
2022/04/16 02:12:43;;;;;;;9.03;4.40;;;;;;;5.08;87.73;99909.25;1739886;82;20179;-37
2022/04/16 02:15:10;;;;;;;5.83;4.22;;;;;;;5.10;87.12;99893.57;1739848;81;21031;-37
2022/04/16 02:17:37;;;;;;;6.97;4.25;;;;;;;5.08;87.24;99894.91;1739715;82;21003;-38
2022/04/16 02:20:09;;;;;;;7.33;4.30;;;;;;;5.14;87.26;99906.48;1739987;81;20995;-36
2022/04/16 02:22:42;;;;;;;5.00;3.87;;;;;;;5.17;87.09;99908.18;1739682;82;21672;-37
2022/04/16 02:25:10;;;;;;;7.30;4.12;;;;;;;5.14;86.91;99905.64;1739667;82;20987;-36
2022/04/16 02:27:36;;;;;;;;;;;;;;;5.11;86.50;99907.00;1742269;82;20996;-36
2022/04/16 02:30:05;;;;;;;5.90;3.83;;;;;;;5.12;86.85;99912.64;1739733;81;20421;-37
2022/04/16 02:32:31;;;;;;;4.45;2.95;;;;;;;5.05;86.18;99913.67;1741448;82;21018;-36
2022/04/16 02:34:57;;;;;;;5.17;3.60;;;;;;;5.09;86.19;99922.67;1753743;82;21399;-37
2022/04/16 02:37:23;;;;;;;4.22;3.83;;;;;;;5.13;85.84;99919.55;1753711;82;21026;-37
2022/04/16 02:39:48;;;;;;;3.02;2.65;;;;;;;5.05;85.99;99919.73;1753721;82;21444;-36
2022/04/16 02:42:18;;;;;;;4.15;3.52;;;;;;;4.99;85.96;99922.03;1743989;77;21086;-35
2022/04/16 02:47:26;;;;;;;3.67;2.83;;;;;;;5.03;85.62;99927.19;1758097;81;20098;-36
2022/04/16 02:49:51;;;;;;;4.95;3.27;;;;;;;4.98;85.59;99932.06;1757958;81;21523;-37
2022/04/16 02:52:17;;;;;;;4.05;3.60;;;;;;;4.93;85.46;99924.79;1758001;81;21488;-36
2022/04/16 02:54:43;;;;;;;4.17;3.15;;;;;;;4.96;85.05;99928.61;1758056;81;21042;-36
2022/04/16 02:57:08;;;;;;;4.00;3.60;;;;;;;4.94;85.05;99940.82;1730288;81;20969;-35
2022/04/16 02:59:35;;;;;;;5.17;3.17;;;;;;;4.93;84.87;99948.25;1758103;81;21022;-37
2022/04/16 03:02:01;;;;;;;7.25;3.35;;;;;;;4.88;84.51;99944.88;1757956;81;20978;-36
2022/04/16 03:04:28;;;;;;;4.37;3.45;;;;;;;4.87;84.78;99946.20;1757948;81;20951;-37
2022/04/16 03:06:53;;;;;;;4.00;3.60;;;;;;;4.97;84.46;99945.98;1758019;81;20998;-36
2022/04/16 03:09:19;;;;;;;3.45;2.70;;;;;;;5.00;84.35;99957.65;1757946;81;21602;-36
2022/04/16 03:11:45;;;;;;;6.17;3.33;;;;;;;5.00;84.26;99957.65;1757991;81;20994;-37
2022/04/16 03:19:39;;;;;;;4.20;3.25;;;;;;;5.00;83.57;99971.98;1757928;81;21038;-35
2022/04/16 03:22:05;;;;;;;4.22;3.10;;;;;;;4.95;83.32;99966.46;1758004;81;21033;-36
2022/04/16 03:24:30;;;;;;;3.92;3.42;;;;;;;4.96;83.12;99978.59;1758022;81;21547;-38
2022/04/16 03:26:56;;;;;;;4.42;3.52;;;;;;;4.96;83.25;99978.13;1757989;81;20995;-37
2022/04/16 03:29:22;;;;;;;7.25;3.20;;;;;;;4.95;82.59;99982.95;1757887;81;21030;-36
2022/04/16 03:31:48;;;;;;;3.90;3.42;;;;;;;4.96;82.56;99985.10;1757893;81;20966;-38
2022/04/16 03:34:13;;;;;;;4.17;3.10;;;;;;;4.96;81.57;99994.23;1757935;81;21034;-37
2022/04/16 03:36:39;;;;;;;6.75;2.90;;;;;;;4.90;80.80;99990.45;1758026;81;20977;-36
2022/04/16 03:39:05;;;;;;;3.40;2.62;;;;;;;4.84;80.80;100000.56;1757995;81;21378;-37
2022/04/16 03:41:31;;;;;;;3.22;2.80;;;;;;;4.91;80.12;100004.77;1758495;80;21523;-36
2022/04/16 03:43:56;;;;;;;4.33;2.90;;;;;;;4.79;79.71;100001.10;1763351;81;21563;-36
2022/04/16 03:46:22;;;;;;;3.35;2.42;;;;;;;4.85;79.85;100015.75;1763631;80;21553;-35
2022/04/16 03:48:48;;;;;;;2.35;2.15;;;;;;;4.84;79.39;100010.11;1763633;81;20994;-37
2022/04/16 03:51:14;;;;;;;3.85;2.70;;;;;;;4.84;78.22;100013.59;1763514;81;20994;-36
2022/04/16 03:53:40;;;;;;;3.60;2.80;;;;;;;4.80;77.84;100005.41;1763562;81;20959;-37
2022/04/16 04:01:34;;;;;;;4.00;3.15;;;;;;;4.74;78.27;100022.48;1763759;80;21026;-36
2022/04/16 04:03:59;;;;;;;2.35;2.15;;;;;;;4.72;78.51;100026.86;1763555;81;20994;-35
2022/04/16 04:06:25;;;;;;;4.17;2.98;;;;;;;4.64;78.70;100029.63;1763556;81;21005;-35
2022/04/16 04:08:51;;;;;;;3.72;2.90;;;;;;;4.73;78.66;100035.95;1763546;81;21293;-35
2022/04/16 04:11:17;;;;;;;3.02;2.72;;;;;;;4.74;78.82;100040.72;1763569;81;21014;-37
2022/04/16 04:13:42;;;;;;;4.30;2.30;;;;;;;4.78;78.60;100048.45;1763501;81;20994;-37
2022/04/16 04:16:08;;;;;;;2.40;2.20;;;;;;;4.61;77.00;100053.11;1763472;81;20990;-35
2022/04/16 04:18:34;;;;;;;2.95;2.50;;;;;;;4.56;77.70;100054.48;1763537;81;21033;-35
2022/04/16 04:21:00;;;;;;;5.97;2.40;;;;;;;4.53;76.48;100066.71;1763531;81;20991;-37
2022/04/16 04:23:25;;;;;;;2.35;2.15;;;;;;;4.51;75.91;100064.58;1763547;81;21034;-37
2022/04/16 04:25:52;;;;;;;3.40;2.50;;;;;;;4.41;76.31;100064.75;1763488;81;21074;-35
2022/04/16 04:28:17;;;;;;;1.90;1.80;;;;;;;4.49;76.41;100077.63;1763578;81;21028;-36
2022/04/16 04:30:43;;;;;;;2.15;1.92;;;;;;;4.34;75.59;100080.52;1763466;81;20995;-36
2022/04/16 04:33:09;;;;;;;2.60;2.20;;;;;;;4.20;75.38;100077.71;1763537;81;20975;-36
2022/04/16 04:35:35;;;;;;;2.47;1.72;;;;;;;4.17;75.20;100076.45;1763607;81;20989;-35
2022/04/16 04:38:01;;;;;;;3.12;1.72;;;;;;;4.03;74.86;100082.31;1763539;81;20987;-35
2022/04/16 04:40:26;;;;;;;2.20;2.00;;;;;;;3.90;74.69;100091.20;1763472;81;21474;-36
2022/04/16 04:42:52;;;;;;;2.10;1.90;;;;;;;3.84;74.37;100089.11;1764759;80;21065;-34
2022/04/16 04:45:18;;;;;;;3.95;1.70;;;;;;;3.80;74.81;100095.25;1766050;81;21534;-36
2022/04/16 04:47:44;;;;;;;1.85;1.75;;;;;;;3.76;74.81;100104.41;1765989;81;21861;-38
2022/04/16 04:50:11;;;;;;;2.02;1.75;;;;;;;3.69;75.20;100101.03;1765946;81;21037;-39
2022/04/16 04:52:39;;;;;;;4.00;1.45;;;;;;;3.65;75.52;100105.86;1766035;81;20994;-38
2022/04/16 04:55:09;;;;;;;2.40;1.82;;;;;;;3.71;75.39;100111.41;1765932;81;21006;-37
2022/04/16 04:57:34;;;;;;;2.55;2.02;;;;;;;3.66;75.60;100112.80;1765897;81;21014;-38
2022/04/16 05:00:00;;;;;;;4.12;2.10;;;;;;;3.69;75.52;100117.94;1765952;81;20994;-36
2022/04/16 05:02:26;;;;;;;2.20;2.00;;;;;;;3.65;75.33;100117.56;1765917;81;21026;-36
2022/04/16 05:04:52;;;;;;;3.05;2.00;;;;;;;3.60;75.35;100123.27;1765905;80;21025;-37
2022/04/16 05:07:17;;;;;;;1.98;1.77;;;;;;;3.57;75.79;100125.48;1765889;80;20990;-36
2022/04/16 05:09:43;;;;;;;7.37;3.10;;;;;;;3.56;75.87;100125.05;1765883;81;21034;-37
2022/04/16 05:12:09;;;;;;;3.50;2.60;;;;;;;3.58;75.68;100116.78;1765878;81;20990;-38
2022/04/16 05:14:35;;;;;;;4.42;2.10;;;;;;;3.58;75.68;100116.78;1765914;81;20990;-36
2022/04/16 05:17:01;;;;;;;1.90;1.80;;;;;;;3.53;76.09;100123.81;1765928;81;20989;-37
2022/04/16 05:19:26;;;;;;;2.10;1.90;;;;;;;3.55;75.57;100130.30;1765937;81;21037;-36
2022/04/16 05:21:52;;;;;;;2.35;1.70;;;;;;;3.56;75.50;100137.20;1765879;81;20998;-38
2022/04/16 05:24:18;;;;;;;2.05;1.85;;;;;;;3.36;75.56;100154.34;1765900;79;21010;-36
2022/04/16 05:26:44;;;;;;;2.45;1.87;;;;;;;3.42;75.77;100146.05;1765963;81;20986;-37
2022/04/16 05:29:10;;;;;;;2.35;1.90;;;;;;;3.45;75.74;100154.23;1765966;81;21471;-38
2022/04/16 05:31:36;;;;;;;2.87;2.22;;;;;;;3.48;75.67;100165.05;1765899;81;21002;-37
2022/04/16 05:34:20;;;;;;;1.92;1.80;;;;;;;3.44;74.79;100166.83;1766341;81;21033;-38
2022/04/16 05:36:49;;;;;;;2.17;1.85;;;;;;;3.33;75.34;100156.56;1765945;81;21037;-38
2022/04/16 05:39:16;;;;;;;1.85;1.55;;;;;;;3.38;75.26;100171.64;1766188;81;20954;-36
2022/04/16 05:41:42;;;;;;;;;;;;;;;3.39;74.88;100186.82;1768590;81;20990;-37
2022/04/16 05:44:08;;;;;;;2.20;1.62;;;;;;;3.23;75.03;100187.42;1765818;80;20129;-36
2022/04/16 05:46:33;;;;;;;2.30;1.57;;;;;;;3.28;74.78;100183.05;1765932;81;20994;-37
2022/04/16 05:48:59;;;;;;;2.15;1.70;;;;;;;3.33;74.89;100186.45;1765853;80;20994;-37
2022/04/16 05:51:27;;;;;;;3.02;1.70;;;;;;;3.29;74.60;100175.64;1765853;79;20990;-36
2022/04/16 05:53:53;;;;;;;3.52;2.15;;;;;;;3.36;75.06;100179.90;1765867;81;21486;-37
2022/04/16 05:56:20;;;;;;;2.05;1.77;;;;;;;3.41;74.79;100183.77;1765881;81;20994;-37
2022/04/16 05:58:46;;;;;;;3.93;1.97;;;;;;;3.44;74.68;100187.19;1766148;81;20959;-38
2022/04/16 06:01:13;;;;;;;2.55;1.60;;;;;;;3.44;74.50;100185.89;1765882;79;21464;-38
2022/04/16 06:03:42;;;;;;;2.17;1.60;;;;;;;3.46;74.56;100184.13;1766128;81;21475;-38
2022/04/16 06:06:09;;;;;;;1.72;1.62;;;;;;;3.46;74.41;100186.72;1765862;81;21854;-36
2022/04/16 06:08:36;;;;;;;2.50;2.00;;;;;;;3.53;74.23;100190.54;1766020;81;21001;-37
2022/04/16 06:11:06;;;;;;;2.15;1.50;;;;;;;3.50;74.28;100197.10;1766024;81;20972;-37
2022/04/16 06:13:32;;;;;;;1.47;1.37;;;;;;;3.56;73.51;100199.61;1765917;81;21490;-34
2022/04/16 06:15:59;;;;;;;2.25;1.50;;;;;;;3.57;73.36;100187.90;1765856;81;21037;-35
2022/04/16 06:18:26;;;;;;;1.67;1.57;;;;;;;3.62;73.46;100191.72;1765979;80;20994;-35
2022/04/16 06:20:51;;;;;;;2.42;1.55;;;;;;;3.69;73.21;100194.67;1766066;81;21059;-35
2022/04/16 06:23:22;;;;;;;1.52;1.37;;;;;;;3.74;72.73;100201.98;1765933;81;21519;-35
2022/04/16 06:25:48;;;;;;;2.67;1.77;;;;;;;3.73;71.80;100205.48;1766098;81;20990;-35
2022/04/16 06:28:14;;;;;;;5.78;1.98;;;;;;;3.73;71.63;100210.69;1765880;80;20966;-36
2022/04/16 06:30:40;;;;;;;1.70;1.52;;;;;;;3.83;71.82;100209.67;1765821;81;21005;-35
2022/04/16 06:33:06;;;;;;;3.47;1.60;;;;;;;3.87;70.84;100212.23;1765859;81;20982;-35
2022/04/16 06:35:32;;;;;;;1.47;1.27;;;;;;;3.93;70.88;100212.15;1765945;80;20955;-36
2022/04/16 06:37:58;;;;;;;2.45;1.67;;;;;;;3.98;69.95;100218.16;1765894;81;21001;-36
2022/04/16 06:40:24;;;;;;;3.08;1.50;;;;;;;3.96;69.29;100212.97;1766005;81;21142;-35
2022/04/16 06:42:52;;;;;;;3.52;2.00;;;;;;;3.91;68.94;100210.01;1765903;80;20994;-34
2022/04/16 06:45:18;;;;;;;;;;;;;;;3.94;69.48;100217.78;1768613;80;21471;-34
2022/04/16 06:47:43;;;;;;;1.60;1.50;;;;;;;3.93;69.32;100208.24;1766043;81;20125;-35
2022/04/16 06:50:10;;;;;;;2.50;1.80;;;;;;;4.07;69.08;100215.42;1766111;81;21536;-36
2022/04/16 06:52:36;;;;;;;6.95;2.30;;;;;;;4.11;69.06;100208.44;1766298;81;21030;-35
2022/04/16 06:55:04;;;;;;;2.98;2.00;;;;;;;4.15;68.91;100221.40;1766049;81;20990;-36
2022/04/16 06:57:30;;;;;;;1.80;1.67;;;;;;;4.24;68.42;100220.41;1766147;81;20978;-36
2022/04/16 06:59:56;;;;;;;2.45;1.80;;;;;;;4.22;69.00;100225.64;1766015;81;20974;-36
2022/04/16 07:02:22;;;;;;;2.20;1.70;;;;;;;4.23;68.09;100235.16;1765999;81;21045;-36
2022/04/16 07:04:48;;;;;;;2.12;1.50;;;;;;;4.22;67.23;100228.24;1766122;81;20966;-36
2022/04/16 07:07:14;;;;;;;1.27;1.17;;;;;;;4.30;67.40;100230.73;1766113;80;21474;-35
2022/04/16 07:09:40;;;;;;;1.82;1.65;;;;;;;4.26;66.71;100232.97;1765982;81;21467;-35
2022/04/16 07:12:10;;;;;;;2.05;1.67;;;;;;;4.32;66.76;100230.71;1766023;81;20978;-37
2022/04/16 07:14:37;;;;;;;4.35;1.85;;;;;;;4.41;67.32;100230.13;1766045;80;20958;-35
2022/04/16 07:17:04;;;;;;;2.37;1.75;;;;;;;4.51;66.83;100239.98;1766235;79;20990;-36
2022/04/16 07:19:30;;;;;;;1.90;1.60;;;;;;;4.66;66.25;100240.59;1766255;81;21577;-36
2022/04/16 07:21:56;;;;;;;1.60;1.50;;;;;;;4.64;65.25;100243.67;1765982;81;20982;-36
2022/04/16 07:24:25;;;;;;;1.70;1.60;;;;;;;4.53;64.92;100261.66;1766024;79;20985;-38
2022/04/16 07:26:53;;;;;;;3.30;1.50;;;;;;;4.48;64.76;100260.85;1765982;81;21002;-37
2022/04/16 07:29:22;;;;;;;4.90;1.90;;;;;;;4.40;64.91;100254.46;1766007;81;20994;-37
2022/04/16 07:31:48;;;;;;;2.42;1.50;;;;;;;4.45;64.97;100262.19;1765145;81;20990;-36
2022/04/16 07:34:14;;;;;;;2.58;1.47;;;;;;;4.44;64.64;100248.77;1766024;81;21447;-36
2022/04/16 07:36:41;;;;;;;2.92;1.37;;;;;;;4.49;64.76;100246.92;1733995;81;21002;-39
2022/04/16 07:39:07;;;;;;;;;;;;;;;4.56;64.60;100251.61;1768675;81;21400;-37
2022/04/16 07:41:33;;;;;;;3.37;1.70;;;;;;;4.52;64.67;100262.52;1765962;81;20640;-35
2022/04/16 07:44:03;;;;;;;3.10;2.30;;;;;;;4.48;64.11;100256.95;1764288;80;21097;-36
2022/04/16 07:46:26;;;;;;;;;;;;;;;4.36;63.62;100268.84;1765705;81;20966;-38
2022/04/16 07:48:52;;;;;;;1.75;1.47;;;;;;;4.38;63.84;100257.53;1763572;81;20134;-37
2022/04/16 07:51:17;;;;;;;4.20;1.85;;;;;;;4.63;63.89;100268.02;1763539;81;20986;-36
2022/04/16 07:53:43;;;;;;;5.42;1.70;;;;;;;4.80;63.44;100259.48;1763589;81;20989;-36
2022/04/16 07:56:09;;;;;;;4.33;2.00;;;;;;;5.02;62.91;100266.95;1763514;81;20987;-37
2022/04/16 07:58:34;;;;;;;6.42;3.65;;;;;;;5.10;61.97;100269.00;1763526;81;21110;-37
2022/04/16 08:01:00;;;;;;;1.90;1.80;;;;;;;5.23;62.07;100287.45;1763560;81;20993;-35
2022/04/16 08:03:26;;;;;;;2.10;1.87;;;;;;;5.29;61.70;100283.41;1763563;81;20994;-36
2022/04/16 08:05:51;;;;;;;2.22;1.87;;;;;;;5.36;60.27;100286.33;1763551;81;21002;-35
2022/04/16 08:08:17;;;;;;;2.12;1.80;;;;;;;5.56;60.06;100285.11;1763528;81;20970;-37
2022/04/16 08:10:43;;;;;;;3.40;1.85;;;;;;;5.53;60.06;100287.77;1763477;81;20994;-36
2022/04/16 08:13:09;;;;;;;2.95;2.10;;;;;;;5.54;58.58;100286.89;1763627;80;21518;-38
2022/04/16 08:15:35;;;;;;;2.45;2.10;;;;;;;5.66;59.19;100285.37;1763605;81;21440;-37
2022/04/16 08:18:02;;;;;;;3.22;1.85;;;;;;;5.90;59.00;100286.62;1763590;81;21026;-37
2022/04/16 08:20:27;;;;;;;5.27;1.90;;;;;;;6.06;57.91;100294.20;1763780;81;20998;-38
2022/04/16 08:22:53;;;;;;;2.62;1.70;;;;;;;6.05;57.41;100300.30;1763521;81;21021;-38
2022/04/16 08:27:46;;;;;;;4.50;2.30;;;;;;;6.12;57.77;100298.82;1763513;81;20943;-37
2022/04/16 08:30:13;;;;;;;3.47;3.17;;;;;;;6.33;58.05;100302.75;1763833;81;21502;-39
2022/04/16 08:32:43;;;;;;;4.75;3.22;;;;;;;6.40;56.75;100309.13;1763768;81;21020;-37
2022/04/16 08:35:14;;;;;;;2.58;2.30;;;;;;;6.60;56.73;100302.16;1763514;81;20990;-38
2022/04/16 08:37:40;;;;;;;4.40;2.70;;;;;;;6.69;55.29;100304.55;1763550;81;21001;-38
2022/04/16 08:40:08;;;;;;;2.27;2.08;;;;;;;6.92;54.39;100307.48;1763477;81;21463;-38
2022/04/16 08:42:36;;;;;;;3.12;2.00;;;;;;;6.96;54.75;100323.11;1763523;81;21471;-39
2022/04/16 08:45:06;;;;;;;3.85;2.30;;;;;;;7.00;53.73;100307.75;1765892;80;21045;-36
2022/04/16 08:47:33;;;;;;;5.70;2.00;;;;;;;7.14;54.60;100306.12;1765730;81;20978;-38
2022/04/16 08:50:00;;;;;;;2.30;2.10;;;;;;;7.18;52.77;100313.83;1766230;81;20990;-36
2022/04/16 08:52:30;;;;;;;2.37;2.17;;;;;;;7.13;52.70;100318.34;1766077;80;21013;-39
2022/04/16 08:54:57;;;;;;;4.65;2.02;;;;;;;7.04;52.95;100318.54;1765936;81;21029;-40
2022/04/16 08:57:24;;;;;;;2.15;1.95;;;;;;;7.02;52.47;100332.11;1766109;81;21617;-36
2022/04/16 08:59:51;;;;;;;4.60;2.40;;;;;;;6.84;52.76;100330.36;1765903;81;21021;-35
2022/04/16 09:02:20;;;;;;;2.27;2.08;;;;;;;6.59;53.16;100327.44;1766069;79;20997;-36
2022/04/16 09:04:47;;;;;;;2.15;2.00;;;;;;;6.76;53.45;100320.52;1765865;81;21017;-37
2022/04/16 09:07:14;;;;;;;2.35;1.95;;;;;;;7.35;53.35;100332.17;1766150;81;21026;-36
2022/04/16 09:09:40;;;;;;;2.90;2.33;;;;;;;7.35;53.35;100332.17;1766184;81;20962;-37
2022/04/16 09:12:18;;;;;;;2.33;2.08;;;;;;;7.38;50.09;100339.95;1765899;81;20983;-38
2022/04/16 09:14:45;;;;;;;6.15;2.15;;;;;;;7.38;49.99;100325.56;1765140;81;20998;-46
2022/04/16 09:17:19;;;;;;;3.27;2.08;;;;;;;7.46;50.30;100328.40;1765934;81;20986;-38
2022/04/16 09:19:54;;;;;;;3.08;1.95;;;;;;;7.67;50.90;100328.27;1765874;80;20974;-36
2022/04/16 09:22:41;;;;;;;2.70;1.95;;;;;;;8.36;51.43;100333.80;1766128;81;20978;-39
2022/04/16 09:25:14;;;;;;;2.20;1.60;;;;;;;8.81;49.79;100322.38;1765097;81;20947;-37
2022/04/16 09:27:43;;;;;;;2.30;2.10;;;;;;;9.35;48.89;100332.45;1765969;81;21601;-37
2022/04/16 09:30:10;;;;;;;2.30;2.08;;;;;;;10.02;48.50;100334.08;1766022;81;20978;-38
2022/04/16 09:32:44;;;;;;;2.20;2.00;;;;;;;10.77;48.01;100331.28;1766010;81;20993;-37
2022/04/16 09:35:32;;;;;;;1.87;1.62;;;;;;;11.24;44.05;100332.45;1765952;81;21030;-37
2022/04/16 09:38:00;;;;;;;1.95;1.70;;;;;;;11.69;43.19;100337.98;1765916;81;21513;-35
2022/04/16 09:40:31;;;;;;;1.70;1.60;;;;;;;11.29;42.12;100345.41;1765867;81;21022;-36
2022/04/16 09:43:01;;;;;;;1.50;1.32;;;;;;;11.24;42.03;100342.98;1765831;80;21510;-36
2022/04/16 09:45:28;;;;;;;3.45;1.87;;;;;;;11.06;41.20;100344.59;1763539;81;21821;-36
2022/04/16 09:47:54;;;;;;;2.47;1.82;;;;;;;11.09;42.93;100336.55;1763613;81;20970;-39
2022/04/16 09:50:23;;;;;;;1.60;1.47;;;;;;;11.21;41.55;100336.99;1763525;81;20958;-36
2022/04/16 09:52:59;;;;;;;14.45;1.95;;;;;;;11.46;40.35;100338.11;1763503;81;21025;-36
2022/04/16 09:55:27;;;;;;;1.60;1.50;;;;;;;11.55;38.19;100354.00;1763567;81;21475;-36
2022/04/16 09:58:06;;;;;;;2.17;1.87;;;;;;;12.22;37.75;100352.39;1763623;81;20966;-44
2022/04/16 10:00:36;;;;;;;2.55;1.82;;;;;;;12.12;37.21;100355.54;1763555;81;21522;-42
2022/04/16 10:03:07;;;;;;;1.37;1.27;;;;;;;12.36;38.57;100350.45;1763581;81;21444;-38
2022/04/16 10:05:34;;;;;;;1.65;1.50;;;;;;;12.72;37.05;100346.19;1763617;81;20950;-37
2022/04/16 10:08:00;;;;;;;2.17;1.70;;;;;;;13.27;35.49;100350.11;1763672;80;21550;-37
2022/04/16 10:10:31;;;;;;;1.92;1.50;;;;;;;13.83;37.22;100358.77;1763568;81;21014;-40
2022/04/16 10:12:59;;;;;;;1.72;1.62;;;;;;;14.45;35.97;100343.14;1762543;81;20983;-39
2022/04/16 10:15:57;;;;;;;3.83;1.90;;;;;;;14.92;34.21;100342.32;1762039;81;21484;-37
2022/04/16 10:18:24;;;;;;;5.22;2.00;;;;;;;15.58;33.04;100349.57;1763737;81;21518;-36
2022/04/16 10:20:59;;;;;;;2.40;2.00;;;;;;;15.39;35.20;100351.59;1763838;81;20990;-38
2022/04/16 10:23:28;;;;;;;2.40;1.80;;;;;;;14.55;33.88;100354.06;1763651;81;20982;-36
2022/04/16 10:26:12;;;;;;;2.83;1.82;;;;;;;14.22;33.65;100360.25;1763693;81;20985;-38
2022/04/16 10:28:53;;;;;;;1.90;1.60;;;;;;;14.58;33.28;100354.78;1763698;81;21510;-37
2022/04/16 10:31:22;;;;;;;1.50;1.20;;;;;;;15.23;32.71;100355.63;1763650;81;20982;-38
2022/04/16 10:34:08;;;;;;;2.02;1.30;;;;;;;15.93;31.88;100351.94;1763614;81;21026;-38
2022/04/16 10:36:44;;;;;;;8.40;1.40;;;;;;;16.72;32.54;100341.28;1763955;81;21498;-40
2022/04/16 10:39:29;;;;;;;2.80;1.73;;;;;;;16.67;30.47;100354.00;1764012;81;20978;-37
2022/04/16 10:41:58;;;;;;;1.77;1.67;;;;;;;15.42;30.18;100352.27;1763708;81;21029;-37
2022/04/16 10:44:26;;;;;;;2.35;1.90;;;;;;;14.21;31.79;100356.75;1762849;80;21041;-36
2022/04/16 10:46:54;;;;;;;;;;;;;;;13.74;33.11;100368.03;1766355;80;20950;-38
2022/04/16 10:49:27;;;;;;;5.47;1.50;;;;;;;12.75;33.39;100373.73;1763726;81;20102;-37
2022/04/16 10:51:55;;;;;;;1.47;1.37;;;;;;;12.35;33.72;100372.94;1763678;81;21111;-38
2022/04/16 10:54:35;;;;;;;2.35;1.72;;;;;;;13.18;34.12;100359.81;1763699;80;21025;-35
2022/04/16 10:57:02;;;;;;;3.47;1.90;;;;;;;13.61;33.02;100359.03;1763682;81;21615;-36
2022/04/16 10:59:42;;;;;;;1.95;1.77;;;;;;;14.77;32.71;100353.76;1763796;81;21332;-36
2022/04/16 11:02:22;;;;;;;2.25;1.32;;;;;;;15.18;33.09;100354.55;1763684;81;21515;-37
2022/04/16 11:05:10;;;;;;;1.50;1.40;;;;;;;14.38;30.66;100377.01;1762147;81;20986;-38
2022/04/16 11:07:38;;;;;;;1.80;1.27;;;;;;;14.23;32.28;100368.58;1763591;81;21022;-39
2022/04/16 11:10:10;;;;;;;2.00;1.80;;;;;;;15.34;31.24;100365.97;1763574;81;20971;-40
2022/04/16 11:12:40;;;;;;;4.15;2.30;;;;;;;16.05;30.43;100363.61;1763548;81;20978;-38
2022/04/16 11:15:11;;;;;;;4.15;1.60;;;;;;;15.90;28.73;100361.42;1763583;81;20963;-38
2022/04/16 11:17:36;;;;;;;4.70;1.65;;;;;;;15.93;28.84;100371.83;1762746;80;21018;-39
2022/04/16 11:20:05;;;;;;;2.20;1.27;;;;;;;16.41;27.05;100361.81;1763561;81;21010;-40
2022/04/16 11:22:35;;;;;;;1.40;1.30;;;;;;;17.58;27.77;100359.57;1763576;81;21507;-38
2022/04/16 11:25:08;;;;;;;1.22;1.12;;;;;;;16.45;26.48;100356.69;1763521;81;21582;-38
2022/04/16 11:34:14;;;;;;;1.47;1.37;;;;;;;15.00;29.37;100368.84;1763665;81;20966;-35
2022/04/16 11:36:00;;;;;;;6.33;1.15;;;;;;;15.19;29.28;100364.66;1763618;81;20978;-37
2022/04/16 11:38:35;;;;;;;7.33;1.32;;;;;;;14.31;28.36;100378.75;1763282;81;20974;-37
2022/04/16 11:41:08;;;;;;;2.00;1.32;;;;;;;14.28;28.66;100377.13;1763608;81;21038;-36
2022/04/16 11:43:38;;;;;;;1.70;1.52;;;;;;;13.31;29.87;100385.19;1763581;80;21024;-37
2022/04/16 11:46:02;;;;;;;7.75;2.02;;;;;;;14.41;29.75;100382.63;1763184;81;20974;-39
2022/04/16 11:48:33;;;;;;;3.02;1.52;;;;;;;16.11;29.58;100366.73;1735881;81;20938;-38
2022/04/16 11:50:59;;;;;;;1.40;1.30;;;;;;;17.77;28.46;100372.49;1763583;80;21057;-36
2022/04/16 11:53:25;;;;;;;1.98;1.40;;;;;;;16.67;26.10;100372.11;1763826;80;21448;-36
2022/04/16 11:55:52;;;;;;;2.15;1.67;;;;;;;15.19;27.48;100369.52;1763571;80;20983;-37
2022/04/16 11:58:18;;;;;;;1.75;1.65;;;;;;;15.76;27.00;100383.46;1756260;81;20983;-38